Time;durP1;ratioP1;P1;durP2;ratioP2;P2;SDS_P1;SDS_P2;PMS_P1;PMS_P2;Temp;Humidity;BMP_temperature;BMP_pressure;BME280_temperature;BME280_humidity;BME280_pressure;Samples;Min_cycle;Max_cycle;Signal;HPM_P1;HPM_P2
2021/12/21 00:02:01;;;;;;;1.93;1.80;;;1.30;99.90;;;;;;5095187;28;20207;-88
2021/12/21 00:04:30;;;;;;;2.17;1.90;;;1.40;99.90;;;;;;5095202;28;20204;-89
2021/12/21 00:07:00;;;;;;;2.50;1.70;;;1.30;99.90;;;;;;5094856;28;20224;-89
2021/12/21 00:09:29;;;;;;;2.17;1.93;;;1.30;99.90;;;;;;5094195;28;20219;-89
2021/12/21 00:11:59;;;;;;;1.60;1.50;;;1.30;99.90;;;;;;5095254;28;20225;-88
2021/12/21 00:14:37;;;;;;;14.00;2.60;;;1.30;99.90;;;;;;5094943;28;20226;-89
2021/12/21 00:17:14;;;;;;;3.00;2.03;;;1.30;99.90;;;;;;5094799;28;20282;-89
2021/12/21 00:23:06;;;;;;;2.03;1.83;;;1.20;99.90;;;;;;5063540;28;20212;-88
2021/12/21 00:25:29;;;;;;;1.90;1.80;;;1.20;99.90;;;;;;5094833;28;20208;-89
2021/12/21 00:27:57;;;;;;;1.83;1.73;;;1.20;99.90;;;;;;5094438;28;20246;-88
2021/12/21 00:30:25;;;;;;;4.83;2.50;;;1.20;99.90;;;;;;5094274;28;20208;-89
2021/12/21 00:32:54;;;;;;;1.97;1.87;;;1.20;99.90;;;;;;5094457;28;20208;-89
2021/12/21 00:35:22;;;;;;;3.03;2.30;;;1.20;99.90;;;;;;5094566;28;20229;-89
2021/12/21 00:37:52;;;;;;;2.27;1.70;;;1.20;99.90;;;;;;5094540;28;20232;-89
2021/12/21 00:40:21;;;;;;;1.90;1.70;;;1.20;99.90;;;;;;5093865;28;20192;-88
2021/12/21 00:42:49;;;;;;;2.00;1.80;;;1.20;99.90;;;;;;5094288;28;20266;-89
2021/12/21 00:45:18;;;;;;;2.20;2.00;;;1.20;99.90;;;;;;5094391;28;20212;-89
2021/12/21 00:47:48;;;;;;;2.00;1.90;;;1.10;99.90;;;;;;5094244;28;20221;-89
2021/12/21 00:50:19;;;;;;;2.83;2.33;;;1.00;99.90;;;;;;5093753;28;20207;-88
2021/12/21 00:52:49;;;;;;;1.73;1.63;;;1.10;99.90;;;;;;5094209;28;20252;-89
2021/12/21 00:55:21;;;;;;;2.13;1.93;;;1.00;99.90;;;;;;5094333;28;20212;-88
2021/12/21 00:57:50;;;;;;;2.10;1.97;;;1.00;99.90;;;;;;5094574;28;20254;-89
2021/12/21 01:00:21;;;;;;;2.07;1.97;;;1.00;99.90;;;;;;5093634;28;20204;-89
2021/12/21 01:02:50;;;;;;;1.70;1.60;;;1.00;99.90;;;;;;5094314;28;20232;-89
2021/12/21 01:05:26;;;;;;;5.77;2.27;;;0.90;99.90;;;;;;5094318;28;20231;-89
2021/12/21 01:07:57;;;;;;;2.57;2.33;;;0.90;99.90;;;;;;5093172;28;20273;-89
2021/12/21 01:13:26;;;;;;;1.83;1.70;;;0.80;99.90;;;;;;5096292;28;20204;-89
2021/12/21 01:16:12;;;;;;;1.90;1.80;;;0.80;99.90;;;;;;5096910;28;20204;-89
2021/12/21 01:18:54;;;;;;;1.73;1.63;;;0.80;99.90;;;;;;5106109;28;20349;-87
2021/12/21 01:21:27;;;;;;;2.27;2.07;;;0.70;99.90;;;;;;5113665;28;20205;-88
2021/12/21 01:24:22;;;;;;;2.63;2.43;;;0.70;99.90;;;;;;5109613;28;20208;-88
2021/12/21 01:27:06;;;;;;;2.13;1.93;;;0.70;99.90;;;;;;5093907;28;20232;-89
2021/12/21 01:29:42;;;;;;;2.10;1.93;;;0.80;99.90;;;;;;5093694;28;20242;-89
2021/12/21 01:32:18;;;;;;;2.40;2.20;;;0.70;99.90;;;;;;5093751;28;20242;-88
2021/12/21 01:34:56;;;;;;;1.97;1.83;;;0.80;99.90;;;;;;5093725;28;20208;-89
2021/12/21 01:37:32;;;;;;;2.10;1.90;;;0.80;99.90;;;;;;5093365;28;20224;-88
2021/12/21 01:40:16;;;;;;;1.53;1.43;;;0.80;99.90;;;;;;5093343;28;20204;-89
2021/12/21 01:43:05;;;;;;;2.10;1.90;;;0.70;99.90;;;;;;5094161;28;20200;-89
2021/12/21 01:51:06;;;;;;;2.17;2.07;;;0.70;99.90;;;;;;5093537;28;20204;-89
2021/12/21 01:53:35;;;;;;;2.70;2.37;;;0.70;99.90;;;;;;5093013;28;20208;-89
2021/12/21 01:56:05;;;;;;;2.90;2.17;;;0.70;99.90;;;;;;5093648;28;20253;-89
2021/12/21 01:58:39;;;;;;;1.73;1.63;;;0.60;99.90;;;;;;5093468;28;20248;-89
2021/12/21 02:01:10;;;;;;;2.30;2.10;;;0.60;99.90;;;;;;5093006;28;20234;-89
2021/12/21 02:03:39;;;;;;;2.10;1.50;;;0.60;99.90;;;;;;5093039;28;20204;-89
2021/12/21 02:06:08;;;;;;;2.47;2.27;;;0.60;99.90;;;;;;5093200;28;20204;-91
2021/12/21 02:08:36;;;;;;;2.00;1.87;;;0.60;99.90;;;;;;5093218;28;20284;-92
2021/12/21 02:11:04;;;;;;;3.57;2.83;;;0.60;99.90;;;;;;5093580;28;20208;-92
2021/12/21 02:13:36;;;;;;;6.43;2.47;;;0.60;99.90;;;;;;5092900;28;20305;-92
2021/12/21 02:16:07;;;;;;;2.53;2.07;;;0.60;99.90;;;;;;5093408;28;20204;-92
2021/12/21 02:18:46;;;;;;;2.20;1.97;;;0.60;99.90;;;;;;5093210;28;20246;-92
2021/12/21 02:21:26;;;;;;;1.87;1.77;;;0.60;99.90;;;;;;5093144;28;20230;-89
2021/12/21 02:24:00;;;;;;;3.10;1.53;;;0.60;99.90;;;;;;5093244;28;20208;-89
2021/12/21 02:26:49;;;;;;;2.63;2.33;;;0.60;99.90;;;;;;5093007;28;20209;-89
2021/12/21 02:29:24;;;;;;;1.80;1.57;;;0.60;99.90;;;;;;5092158;28;20204;-89
2021/12/21 02:31:54;;;;;;;2.93;2.20;;;0.60;99.90;;;;;;5092999;28;20220;-89
2021/12/21 02:34:24;;;;;;;2.10;1.83;;;0.60;99.90;;;;;;5092751;28;20204;-89
2021/12/21 02:36:56;;;;;;;1.90;1.80;;;0.60;99.90;;;;;;5092941;28;20197;-89
2021/12/21 02:39:25;;;;;;;1.77;1.67;;;0.50;99.90;;;;;;5092132;28;20288;-89
2021/12/21 02:41:54;;;;;;;2.07;1.90;;;0.60;99.90;;;;;;5092670;28;20196;-89
2021/12/21 02:44:23;;;;;;;1.87;1.60;;;0.60;99.90;;;;;;5092676;28;20227;-89
2021/12/21 02:46:51;;;;;;;1.90;1.80;;;0.60;99.90;;;;;;5092573;28;20235;-89
2021/12/21 02:49:20;;;;;;;1.57;1.47;;;0.50;99.90;;;;;;5092404;28;20250;-89
2021/12/21 02:51:49;;;;;;;1.73;1.63;;;0.60;99.90;;;;;;5092403;28;20204;-89
2021/12/21 02:54:21;;;;;;;1.20;1.20;;;0.50;99.90;;;;;;5092436;28;20212;-89
2021/12/21 02:56:49;;;;;;;2.00;1.77;;;0.50;99.90;;;;;;5092530;28;20197;-90
2021/12/21 02:59:18;;;;;;;1.37;1.27;;;0.50;99.90;;;;;;5092139;28;20196;-89
2021/12/21 03:01:46;;;;;;;1.73;1.60;;;0.50;99.90;;;;;;5092725;28;20261;-89
2021/12/21 03:04:15;;;;;;;1.47;1.37;;;0.50;99.90;;;;;;5092570;28;20196;-89
2021/12/21 03:09:42;;;;;;;2.53;1.80;;;0.50;99.90;;;;;;5092030;28;20209;-89
2021/12/21 03:12:31;;;;;;;1.90;1.33;;;0.50;99.90;;;;;;5092302;28;20232;-89
2021/12/21 03:14:59;;;;;;;2.73;1.50;;;0.50;99.90;;;;;;5092663;28;20213;-89
2021/12/21 03:17:28;;;;;;;1.57;1.47;;;0.50;99.90;;;;;;5092295;28;20224;-89
2021/12/21 03:19:56;;;;;;;1.50;1.40;;;0.50;99.90;;;;;;5091864;28;20205;-89
2021/12/21 03:22:25;;;;;;;1.87;1.50;;;0.40;99.90;;;;;;5092108;28;20257;-89
2021/12/21 03:24:55;;;;;;;1.90;1.47;;;0.40;99.90;;;;;;5092357;28;20235;-90
2021/12/21 03:27:23;;;;;;;1.60;1.50;;;0.40;99.90;;;;;;5092352;28;20260;-90
2021/12/21 03:29:52;;;;;;;1.63;1.53;;;0.40;99.90;;;;;;5093627;28;20196;-90
2021/12/21 03:32:20;;;;;;;1.57;1.47;;;0.40;99.90;;;;;;5098162;28;20242;-89
2021/12/21 03:34:49;;;;;;;4.73;2.00;;;0.40;99.90;;;;;;5098712;28;20203;-89
2021/12/21 03:37:18;;;;;;;1.00;1.00;;;0.50;99.90;;;;;;5098550;28;20232;-88
2021/12/21 03:39:47;;;;;;;1.67;1.57;;;0.40;99.90;;;;;;5113129;28;20196;-87
2021/12/21 03:42:17;;;;;;;1.40;1.30;;;0.50;99.90;;;;;;5114703;28;20185;-88
2021/12/21 03:44:47;;;;;;;1.37;1.10;;;0.50;99.90;;;;;;5097977;28;20212;-90
2021/12/21 03:47:17;;;;;;;1.57;1.30;;;0.40;99.90;;;;;;5095814;28;20225;-90
2021/12/21 03:49:57;;;;;;;1.50;1.40;;;0.50;99.90;;;;;;5100548;28;20234;-90
2021/12/21 03:52:27;;;;;;;3.33;2.33;;;0.50;99.90;;;;;;5095407;28;20212;-89
2021/12/21 03:54:57;;;;;;;1.50;1.40;;;0.50;99.90;;;;;;5096039;28;20201;-89
2021/12/21 03:57:28;;;;;;;1.30;1.27;;;0.50;99.90;;;;;;5095624;28;20261;-90
2021/12/21 03:59:57;;;;;;;5.80;2.00;;;0.40;99.90;;;;;;5094973;28;20200;-90
2021/12/21 04:02:27;;;;;;;4.50;1.40;;;0.40;99.90;;;;;;5095639;28;20204;-90
2021/12/21 04:04:57;;;;;;;2.10;1.73;;;0.50;99.90;;;;;;5095255;28;20207;-89
2021/12/21 04:07:26;;;;;;;4.50;1.90;;;0.40;99.90;;;;;;5095362;28;20232;-90
2021/12/21 04:09:55;;;;;;;1.40;1.30;;;0.40;99.90;;;;;;5094656;28;20215;-89
2021/12/21 04:12:23;;;;;;;2.20;1.87;;;0.40;99.90;;;;;;5095281;28;20204;-90
2021/12/21 04:14:56;;;;;;;2.70;1.77;;;0.40;99.90;;;;;;5095344;28;20209;-90
2021/12/21 04:17:25;;;;;;;1.93;1.80;;;0.40;99.90;;;;;;5094755;28;20266;-90
2021/12/21 04:19:53;;;;;;;1.87;1.47;;;0.40;99.90;;;;;;5094892;28;20219;-89
2021/12/21 04:22:22;;;;;;;1.47;1.43;;;0.40;99.90;;;;;;5095656;28;20285;-89
2021/12/21 04:24:51;;;;;;;1.83;1.73;;;0.30;99.90;;;;;;5095309;28;20197;-90
2021/12/21 04:27:20;;;;;;;2.03;1.87;;;0.30;99.90;;;;;;5095029;28;20225;-89
2021/12/21 04:29:48;;;;;;;11.50;2.10;;;0.30;99.90;;;;;;5094884;28;20262;-90
2021/12/21 04:32:18;;;;;;;1.03;1.03;;;0.30;99.90;;;;;;5094623;28;20204;-90
2021/12/21 04:34:47;;;;;;;1.80;1.70;;;0.30;99.90;;;;;;5094666;28;20221;-89
2021/12/21 04:37:18;;;;;;;1.63;1.53;;;0.30;99.90;;;;;;5094926;28;20220;-89
2021/12/21 04:39:53;;;;;;;3.17;1.83;;;0.30;99.90;;;;;;5093849;28;20212;-89
2021/12/21 04:42:22;;;;;;;1.47;1.37;;;0.30;99.90;;;;;;5093391;28;20218;-89
2021/12/21 04:44:51;;;;;;;1.50;1.40;;;0.30;99.90;;;;;;5094620;28;20205;-89
2021/12/21 04:47:20;;;;;;;1.63;1.53;;;0.20;99.90;;;;;;5095113;28;20236;-89
2021/12/21 04:49:49;;;;;;;1.80;1.70;;;0.20;99.90;;;;;;5094685;28;20200;-90
2021/12/21 04:52:17;;;;;;;2.00;1.90;;;0.20;99.90;;;;;;5094278;28;20204;-89
2021/12/21 04:54:46;;;;;;;1.50;1.40;;;0.20;99.90;;;;;;5094161;28;20262;-90
2021/12/21 04:57:14;;;;;;;1.53;1.43;;;0.20;99.90;;;;;;5094429;28;20228;-89
2021/12/21 04:59:43;;;;;;;1.67;1.53;;;0.10;99.90;;;;;;5094416;28;20281;-90
2021/12/21 05:02:11;;;;;;;1.50;1.40;;;0.10;99.90;;;;;;5094209;28;20230;-89
2021/12/21 05:04:41;;;;;;;1.93;1.77;;;0.10;99.90;;;;;;5094141;28;20283;-90
2021/12/21 05:07:10;;;;;;;1.90;1.80;;;0.10;99.90;;;;;;5094084;28;20224;-90
2021/12/21 05:09:43;;;;;;;1.70;1.60;;;0.10;99.90;;;;;;5093398;28;20242;-89
2021/12/21 05:12:13;;;;;;;3.03;2.30;;;0.10;99.90;;;;;;5094160;28;20215;-90
2021/12/21 05:14:41;;;;;;;1.67;1.50;;;0.10;99.90;;;;;;5094075;28;20308;-90
2021/12/21 05:17:10;;;;;;;2.07;1.93;;;0.10;99.90;;;;;;5093974;28;20225;-89
2021/12/21 05:19:38;;;;;;;2.10;1.87;;;0.10;99.90;;;;;;5093319;28;20231;-90
2021/12/21 05:22:09;;;;;;;1.60;1.50;;;0.10;99.90;;;;;;5093597;28;20201;-89
2021/12/21 05:24:37;;;;;;;2.37;2.10;;;0.10;99.90;;;;;;5094304;28;20192;-90
2021/12/21 05:27:07;;;;;;;2.10;1.90;;;0.00;99.90;;;;;;5093643;28;20312;-90
2021/12/21 05:29:35;;;;;;;1.70;1.60;;;0.00;99.90;;;;;;5094054;28;20245;-89
2021/12/21 05:32:05;;;;;;;2.53;2.33;;;0.00;99.90;;;;;;5093989;28;20249;-90
2021/12/21 05:34:34;;;;;;;3.53;2.13;;;0.00;99.90;;;;;;5093410;28;20216;-90
2021/12/21 05:37:06;;;;;;;2.27;1.93;;;-0.10;99.90;;;;;;5093882;28;20281;-89
2021/12/21 05:39:43;;;;;;;1.70;1.60;;;-0.10;99.90;;;;;;5093779;28;20196;-90
2021/12/21 05:42:12;;;;;;;2.23;2.03;;;-0.10;99.90;;;;;;5093434;28;20254;-90
2021/12/21 05:44:41;;;;;;;1.60;1.50;;;-0.20;99.90;;;;;;5094271;28;20209;-89
2021/12/21 05:47:10;;;;;;;1.67;1.57;;;-0.10;99.90;;;;;;5093573;28;20216;-90
2021/12/21 05:49:38;;;;;;;3.90;1.73;;;-0.10;99.90;;;;;;5094130;28;20204;-89
2021/12/21 05:52:07;;;;;;;2.40;2.00;;;-0.10;99.90;;;;;;5098456;28;20201;-89
2021/12/21 05:54:37;;;;;;;1.87;1.77;;;-0.10;99.90;;;;;;5097094;28;20216;-89
2021/12/21 05:57:06;;;;;;;3.23;2.70;;;-0.10;99.90;;;;;;5097810;28;20282;-90
2021/12/21 05:59:34;;;;;;;2.20;2.00;;;-0.10;99.90;;;;;;5110514;28;20208;-88
2021/12/21 06:02:03;;;;;;;2.43;2.23;;;-0.20;99.90;;;;;;5111096;28;20282;-88
2021/12/21 06:04:32;;;;;;;3.00;1.73;;;-0.20;99.90;;;;;;5103167;28;20196;-89
2021/12/21 06:07:00;;;;;;;4.87;2.30;;;-0.20;99.90;;;;;;5101486;28;20242;-87
2021/12/21 06:09:30;;;;;;;2.00;1.90;;;-0.20;99.90;;;;;;5094152;28;20220;-89
2021/12/21 06:12:08;;;;;;;2.23;2.03;;;-0.20;99.90;;;;;;5093376;28;20197;-89
2021/12/21 06:23:05;;;;;;;2.00;1.90;;;-0.30;99.90;;;;;;5095162;28;20261;-90
2021/12/21 06:25:40;;;;;;;5.10;3.57;;;-0.30;99.90;;;;;;5094334;28;20197;-89
2021/12/21 06:28:14;;;;;;;4.27;2.60;;;-0.30;99.90;;;;;;5093463;28;20228;-89
2021/12/21 06:30:43;;;;;;;3.03;2.73;;;-0.30;99.90;;;;;;5094169;28;20238;-89
2021/12/21 06:33:12;;;;;;;2.17;1.97;;;-0.30;99.90;;;;;;5093139;28;20208;-90
2021/12/21 06:35:41;;;;;;;3.73;3.07;;;-0.30;99.90;;;;;;5092647;28;20220;-90
2021/12/21 06:38:10;;;;;;;3.53;2.33;;;-0.30;99.90;;;;;;5092650;28;20281;-90
2021/12/21 06:40:44;;;;;;;4.00;2.50;;;-0.30;99.90;;;;;;5091921;28;20205;-89
2021/12/21 06:43:16;;;;;;;3.83;2.73;;;-0.30;99.90;;;;;;5092916;28;20233;-89
2021/12/21 06:45:50;;;;;;;2.60;2.40;;;-0.30;99.90;;;;;;5092663;28;20373;-90
2021/12/21 06:51:19;;;;;;;6.23;2.80;;;-0.30;99.90;;;;;;5092318;28;20353;-89
2021/12/21 06:53:49;;;;;;;3.20;2.60;;;-0.30;99.90;;;;;;5092360;28;20254;-89
2021/12/21 06:56:23;;;;;;;2.63;2.30;;;-0.30;99.90;;;;;;5092863;28;20214;-90
2021/12/21 06:58:55;;;;;;;3.77;2.77;;;-0.30;99.90;;;;;;5092857;28;20278;-89
2021/12/21 07:01:28;;;;;;;2.37;1.97;;;-0.30;99.90;;;;;;5092900;28;20204;-89
2021/12/21 07:03:58;;;;;;;2.07;1.97;;;-0.40;99.90;;;;;;5092618;28;20228;-89
2021/12/21 07:06:28;;;;;;;2.43;2.17;;;-0.40;99.90;;;;;;5094950;28;20212;-89
2021/12/21 07:09:01;;;;;;;2.17;1.90;;;-0.40;99.90;;;;;;5096074;28;20284;-89
2021/12/21 07:11:40;;;;;;;2.87;2.37;;;-0.40;99.90;;;;;;5096281;28;20242;-90
2021/12/21 07:19:44;;;;;;;2.77;2.57;;;-0.40;99.90;;;;;;5095890;28;20218;-89
2021/12/21 07:22:13;;;;;;;2.20;2.00;;;-0.30;99.90;;;;;;5096198;28;20204;-89
2021/12/21 07:24:41;;;;;;;3.50;2.83;;;-0.30;99.90;;;;;;5095967;28;20204;-90
2021/12/21 07:27:10;;;;;;;3.87;2.80;;;-0.30;99.90;;;;;;5096152;28;20228;-90
2021/12/21 07:29:40;;;;;;;2.40;2.03;;;-0.20;99.90;;;;;;5095982;28;20208;-90
2021/12/21 07:32:09;;;;;;;2.20;2.00;;;-0.20;99.90;;;;;;5096185;28;20201;-90
2021/12/21 07:34:38;;;;;;;2.73;2.53;;;-0.20;99.90;;;;;;5095812;28;20248;-89
2021/12/21 07:37:09;;;;;;;3.83;2.47;;;-0.20;99.90;;;;;;5096124;28;20277;-89
2021/12/21 07:39:39;;;;;;;5.77;2.17;;;-0.20;99.90;;;;;;5095445;28;20207;-89
2021/12/21 07:42:23;;;;;;;2.33;2.13;;;-0.20;99.90;;;;;;5095973;28;20204;-90
2021/12/21 07:44:54;;;;;;;2.77;2.57;;;-0.10;99.90;;;;;;5096131;28;20200;-89
2021/12/21 07:47:22;;;;;;;2.87;2.60;;;-0.10;99.90;;;;;;5095856;28;20244;-89
2021/12/21 07:49:51;;;;;;;2.10;1.93;;;-0.10;99.90;;;;;;5095070;28;20212;-89
2021/12/21 07:52:20;;;;;;;3.60;2.93;;;0.00;99.90;;;;;;5095543;28;20204;-89
2021/12/21 07:54:49;;;;;;;3.60;2.83;;;0.10;99.90;;;;;;5095539;28;20216;-89
2021/12/21 07:57:17;;;;;;;2.57;2.20;;;0.10;99.90;;;;;;5095178;28;20281;-90
2021/12/21 07:59:46;;;;;;;2.93;2.67;;;0.10;99.90;;;;;;5095206;28;20232;-89
2021/12/21 08:02:17;;;;;;;2.53;2.33;;;0.10;99.90;;;;;;5095685;28;20204;-90
2021/12/21 08:04:47;;;;;;;3.37;2.63;;;0.10;99.90;;;;;;5095630;28;20232;-89
2021/12/21 08:07:21;;;;;;;2.43;2.17;;;0.10;99.90;;;;;;5097347;28;20224;-89
2021/12/21 08:09:54;;;;;;;2.30;2.10;;;0.20;99.90;;;;;;5097546;28;20265;-87
2021/12/21 08:12:23;;;;;;;2.53;2.33;;;0.20;99.90;;;;;;5098207;28;20270;-89
2021/12/21 08:14:53;;;;;;;4.33;3.07;;;0.30;99.90;;;;;;5102518;28;20220;-87
2021/12/21 08:17:23;;;;;;;2.53;2.33;;;0.40;99.90;;;;;;5109187;28;20221;-88
2021/12/21 08:19:52;;;;;;;3.27;2.40;;;0.50;99.90;;;;;;5105064;28;20201;-89
2021/12/21 08:22:20;;;;;;;3.50;2.70;;;0.60;99.90;;;;;;5097966;28;20204;-87
2021/12/21 08:24:49;;;;;;;2.90;2.70;;;0.80;99.90;;;;;;5099897;28;20200;-89
2021/12/21 08:27:17;;;;;;;3.47;2.73;;;0.80;99.90;;;;;;5094822;28;20273;-89
2021/12/21 08:29:46;;;;;;;4.20;3.07;;;0.90;99.90;;;;;;5095173;28;20197;-89
2021/12/21 08:32:14;;;;;;;2.23;2.10;;;1.00;99.90;;;;;;5094854;28;20253;-89
2021/12/21 08:34:44;;;;;;;2.80;2.60;;;1.00;99.90;;;;;;5094779;28;20207;-89
2021/12/21 08:37:13;;;;;;;2.60;2.40;;;1.00;99.90;;;;;;5094778;28;20236;-89
2021/12/21 08:39:42;;;;;;;2.95;2.75;;;1.00;99.90;;;;;;5094334;28;20208;-89
2021/12/21 08:42:14;;;;;;;3.20;2.97;;;1.00;99.90;;;;;;5094732;28;20207;-89
2021/12/21 08:44:45;;;;;;;3.17;2.87;;;1.00;99.90;;;;;;5094879;28;20204;-89
2021/12/21 08:47:14;;;;;;;2.27;2.10;;;1.00;99.90;;;;;;5094443;28;20224;-89
2021/12/21 08:49:49;;;;;;;2.63;2.43;;;1.00;99.90;;;;;;5094338;28;20215;-90
2021/12/21 08:52:18;;;;;;;4.40;3.07;;;1.00;99.90;;;;;;5093913;28;20221;-89
2021/12/21 08:54:46;;;;;;;2.67;2.47;;;1.00;99.90;;;;;;5094684;28;20204;-89
2021/12/21 08:57:15;;;;;;;2.27;2.07;;;1.00;99.90;;;;;;5094313;28;20258;-89
2021/12/21 08:59:49;;;;;;;6.33;3.10;;;1.10;99.90;;;;;;5094275;28;20301;-89
2021/12/21 09:02:17;;;;;;;3.47;2.60;;;1.10;99.90;;;;;;5094689;28;20208;-89
2021/12/21 09:04:47;;;;;;;5.97;2.97;;;1.10;99.90;;;;;;5094228;28;20212;-89
2021/12/21 09:07:16;;;;;;;2.13;2.03;;;1.10;99.90;;;;;;5094311;28;20283;-89
2021/12/21 09:09:44;;;;;;;3.33;2.60;;;1.20;99.90;;;;;;5093453;28;20219;-89
2021/12/21 09:12:13;;;;;;;3.67;2.20;;;1.20;99.90;;;;;;5094226;28;20275;-90
2021/12/21 09:14:41;;;;;;;2.50;2.30;;;1.30;99.90;;;;;;5093953;28;20250;-89
2021/12/21 09:17:10;;;;;;;3.00;2.70;;;1.30;99.90;;;;;;5093580;28;20220;-89
2021/12/21 09:19:38;;;;;;;2.97;2.73;;;1.30;99.90;;;;;;5093407;28;20204;-89
2021/12/21 09:22:08;;;;;;;1.77;1.67;;;1.40;99.90;;;;;;5093912;28;20208;-88
2021/12/21 09:24:37;;;;;;;2.70;2.50;;;1.50;99.90;;;;;;5093370;28;20207;-89
2021/12/21 09:27:06;;;;;;;2.93;2.37;;;1.50;99.90;;;;;;5093782;28;20220;-89
2021/12/21 09:29:36;;;;;;;1.87;1.77;;;1.60;99.90;;;;;;5092869;28;20204;-89
2021/12/21 09:32:06;;;;;;;2.10;1.90;;;1.60;99.90;;;;;;5093526;28;20204;-89
2021/12/21 09:34:35;;;;;;;2.10;1.90;;;1.70;99.90;;;;;;5093757;28;20207;-89
2021/12/21 09:37:04;;;;;;;3.70;1.90;;;1.80;99.90;;;;;;5093409;28;20229;-89
2021/12/21 09:39:34;;;;;;;2.10;1.90;;;1.80;99.90;;;;;;5092616;28;20240;-89
2021/12/21 09:42:03;;;;;;;1.73;1.63;;;1.90;99.90;;;;;;5093460;28;20208;-89
2021/12/21 09:44:31;;;;;;;2.20;1.97;;;2.00;99.90;;;;;;5093164;28;20205;-89
2021/12/21 09:47:00;;;;;;;2.60;1.90;;;2.00;99.90;;;;;;5093728;28;20224;-89
2021/12/21 09:49:28;;;;;;;1.77;1.67;;;2.10;99.90;;;;;;5092840;28;20200;-89
2021/12/21 09:51:57;;;;;;;2.10;1.90;;;2.20;99.90;;;;;;5093350;28;20208;-89
2021/12/21 09:54:26;;;;;;;1.90;1.80;;;2.30;99.90;;;;;;5093716;28;20204;-89
2021/12/21 09:56:56;;;;;;;1.65;1.55;;;2.40;99.90;;;;;;5092763;28;20217;-88
2021/12/21 09:59:26;;;;;;;1.00;1.00;;;2.40;99.90;;;;;;5093145;28;20218;-89
2021/12/21 10:01:56;;;;;;;1.40;1.30;;;2.50;99.90;;;;;;5093178;28;20196;-89
2021/12/21 10:04:25;;;;;;;1.73;1.63;;;2.60;99.90;;;;;;5093095;28;20212;-89
2021/12/21 10:06:57;;;;;;;2.45;2.25;;;2.60;99.90;;;;;;5093054;28;20200;-89
2021/12/21 10:09:33;;;;;;;1.67;1.58;;;2.70;99.90;;;;;;5092563;28;20224;-88
2021/12/21 10:12:07;;;;;;;1.92;1.83;;;2.90;99.90;;;;;;5093212;28;20267;-89
2021/12/21 10:14:36;;;;;;;2.83;2.03;;;3.10;99.90;;;;;;5092887;28;20257;-89
2021/12/21 10:17:06;;;;;;;2.17;1.38;;;3.20;99.90;;;;;;5092900;28;20223;-89
2021/12/21 10:19:37;;;;;;;1.40;1.30;;;3.30;99.90;;;;;;5092488;28;20213;-89
2021/12/21 10:22:10;;;;;;;1.45;1.42;;;3.60;99.90;;;;;;5092749;28;20269;-88
2021/12/21 10:24:46;;;;;;;1.40;1.30;;;3.80;99.90;;;;;;5093634;28;20207;-89
2021/12/21 10:27:18;;;;;;;1.40;1.30;;;4.00;99.90;;;;;;5094171;28;20224;-89
2021/12/21 10:29:49;;;;;;;1.63;1.35;;;4.40;99.90;;;;;;5094591;28;20208;-89
2021/12/21 10:32:22;;;;;;;1.63;1.52;;;5.20;99.90;;;;;;5097096;28;20204;-87
2021/12/21 10:34:55;;;;;;;2.00;1.60;;;5.50;99.90;;;;;;5106427;28;20203;-88
2021/12/21 10:37:27;;;;;;;1.70;1.30;;;5.60;98.30;;;;;;5099563;28;20231;-87
2021/12/21 10:40:25;;;;;;;1.98;1.88;;;5.70;97.10;;;;;;5095692;28;20262;-89
2021/12/21 10:42:59;;;;;;;1.00;1.00;;;6.10;95.70;;;;;;5080197;28;20208;-89
2021/12/21 10:45:31;;;;;;;1.75;1.65;;;6.30;95.00;;;;;;5093056;28;20208;-89
2021/12/21 10:48:01;;;;;;;2.13;1.45;;;6.60;93.80;;;;;;5093256;28;20221;-89
2021/12/21 10:50:32;;;;;;;1.13;1.13;;;6.60;93.90;;;;;;5093226;28;20204;-90
2021/12/21 10:53:05;;;;;;;1.60;1.33;;;6.50;92.40;;;;;;5095750;28;20287;-90
2021/12/21 10:55:35;;;;;;;1.70;1.60;;;6.70;92.10;;;;;;5095448;28;20204;-90
2021/12/21 10:58:15;;;;;;;1.17;1.17;;;6.70;91.40;;;;;;5093780;28;20220;-90
2021/12/21 11:00:47;;;;;;;2.38;2.08;;;7.10;90.40;;;;;;5093005;28;20208;-89
2021/12/21 11:03:19;;;;;;;9.57;1.75;;;6.90;89.80;;;;;;5092785;28;20262;-89
2021/12/21 11:05:48;;;;;;;1.00;1.00;;;7.40;90.30;;;;;;5092589;28;20208;-89
2021/12/21 11:08:24;;;;;;;1.00;1.00;;;8.10;85.90;;;;;;5092381;28;20225;-89
2021/12/21 11:10:58;;;;;;;3.97;2.13;;;8.40;83.40;;;;;;5091934;28;20196;-89
2021/12/21 11:13:28;;;;;;;1.30;1.20;;;8.40;83.30;;;;;;5092473;28;20257;-89
2021/12/21 11:15:59;;;;;;;1.13;1.10;;;8.40;84.80;;;;;;5092402;28;20206;-89
2021/12/21 11:18:28;;;;;;;1.48;1.27;;;8.70;78.70;;;;;;5091847;28;20228;-89
2021/12/21 11:20:57;;;;;;;1.38;1.27;;;8.80;77.60;;;;;;5091815;28;20204;-89
2021/12/21 11:23:27;;;;;;;1.25;1.15;;;8.30;79.40;;;;;;5092242;28;20208;-89
2021/12/21 11:25:56;;;;;;;1.20;1.20;;;7.90;79.00;;;;;;5092017;28;20227;-88
2021/12/21 11:28:36;;;;;;;1.63;1.52;;;7.80;79.50;;;;;;5091863;28;20303;-89
2021/12/21 11:31:06;;;;;;;1.13;1.02;;;7.80;80.00;;;;;;5092452;28;20207;-90
2021/12/21 11:33:42;;;;;;;0.93;0.93;;;7.90;78.40;;;;;;5092452;28;20232;-89
2021/12/21 11:38:59;;;;;;;1.02;1.02;;;8.60;79.10;;;;;;5091515;28;20228;-89
2021/12/21 11:41:28;;;;;;;1.20;1.20;;;9.10;74.80;;;;;;5091946;28;20200;-89
2021/12/21 11:44:06;;;;;;;1.70;1.48;;;9.10;73.90;;;;;;5092384;28;20204;-90
2021/12/21 11:46:51;;;;;;;2.60;1.30;;;9.00;75.20;;;;;;5092165;28;20223;-89
2021/12/21 11:49:27;;;;;;;1.38;1.27;;;8.90;73.90;;;;;;5091673;28;20205;-89
2021/12/21 11:52:06;;;;;;;1.15;1.05;;;8.70;73.70;;;;;;5093293;28;20207;-88
2021/12/21 11:54:47;;;;;;;0.68;0.68;;;8.50;76.30;;;;;;5095748;28;20260;-88
2021/12/21 11:57:18;;;;;;;1.35;1.25;;;8.90;72.00;;;;;;5095429;28;20232;-89
2021/12/21 11:59:49;;;;;;;0.88;0.88;;;8.70;72.10;;;;;;5094876;28;20211;-89
2021/12/21 12:02:30;;;;;;;0.70;0.70;;;8.80;73.70;;;;;;5095806;28;20204;-88
2021/12/21 12:04:59;;;;;;;1.42;1.08;;;8.60;72.60;;;;;;5095378;28;20203;-89
2021/12/21 12:07:34;;;;;;;1.35;1.25;;;8.30;74.30;;;;;;5095425;28;20242;-89
2021/12/21 12:10:09;;;;;;;0.98;0.98;;;8.20;74.30;;;;;;5095088;28;20212;-90
2021/12/21 12:12:38;;;;;;;1.50;1.35;;;8.20;74.10;;;;;;5095581;28;20215;-89
2021/12/21 12:15:11;;;;;;;1.10;1.08;;;8.30;74.30;;;;;;5094985;28;20205;-89
2021/12/21 12:17:47;;;;;;;1.38;1.27;;;8.40;74.20;;;;;;5095121;28;20228;-89
2021/12/21 12:20:16;;;;;;;1.15;0.90;;;8.70;73.60;;;;;;5094819;28;20196;-89
2021/12/21 12:22:47;;;;;;;1.20;1.10;;;8.60;74.30;;;;;;5095003;28;20223;-89
2021/12/21 12:25:20;;;;;;;1.65;1.33;;;8.50;74.10;;;;;;5095432;28;20208;-89
2021/12/21 12:27:51;;;;;;;1.10;1.10;;;8.40;74.10;;;;;;5095111;28;20220;-89
2021/12/21 12:30:23;;;;;;;0.85;0.85;;;8.30;75.00;;;;;;5094401;28;20208;-89
2021/12/21 12:32:56;;;;;;;0.77;0.77;;;8.40;75.70;;;;;;5095006;28;20204;-90
2021/12/21 12:35:27;;;;;;;1.20;1.13;;;8.30;74.80;;;;;;5094949;28;20214;-89
2021/12/21 12:37:58;;;;;;;1.27;1.17;;;8.50;76.40;;;;;;5095057;28;20224;-88
2021/12/21 12:40:30;;;;;;;1.00;1.00;;;8.40;74.70;;;;;;5095529;28;20209;-88
2021/12/21 12:43:00;;;;;;;1.67;1.58;;;8.20;73.80;;;;;;5095343;28;20212;-88
2021/12/21 12:45:37;;;;;;;1.08;0.98;;;8.00;74.90;;;;;;5097925;28;20215;-86
2021/12/21 12:48:17;;;;;;;1.60;1.50;;;8.00;75.60;;;;;;5104210;28;20224;-86
2021/12/21 12:50:46;;;;;;;1.52;1.42;;;7.90;76.40;;;;;;5098334;28;20200;-88
2021/12/21 12:53:16;;;;;;;1.00;1.00;;;7.80;75.60;;;;;;5094640;28;20205;-88
2021/12/21 12:55:49;;;;;;;1.58;1.48;;;7.60;75.40;;;;;;5099434;28;20200;-88
2021/12/21 12:58:50;;;;;;;3.55;1.42;;;7.90;75.60;;;;;;5093641;28;20260;-88
2021/12/21 13:01:23;;;;;;;4.55;1.60;;;7.90;76.40;;;;;;5094727;28;20239;-89
2021/12/21 13:03:53;;;;;;;1.00;1.00;;;8.10;75.80;;;;;;5093194;28;20201;-89
2021/12/21 13:06:23;;;;;;;1.20;1.13;;;8.30;77.30;;;;;;5094206;28;20205;-89
2021/12/21 13:08:52;;;;;;;1.05;1.05;;;8.00;75.20;;;;;;5093361;28;20232;-88
2021/12/21 13:11:23;;;;;;;1.60;1.50;;;7.40;76.40;;;;;;5094026;28;20197;-89
2021/12/21 13:13:53;;;;;;;1.73;1.58;;;6.80;76.90;;;;;;5094464;28;20200;-89
2021/12/21 13:16:26;;;;;;;1.10;1.10;;;6.40;78.80;;;;;;5094157;28;20204;-89
2021/12/21 13:18:57;;;;;;;0.98;0.98;;;6.30;80.50;;;;;;5093032;28;20224;-88
2021/12/21 13:21:28;;;;;;;1.17;1.08;;;6.60;82.70;;;;;;5093765;28;20309;-88
2021/12/21 13:24:03;;;;;;;1.05;1.02;;;7.00;80.00;;;;;;5094294;28;20204;-89
2021/12/21 13:26:35;;;;;;;2.38;1.27;;;7.50;79.70;;;;;;5093843;28;20257;-89
2021/12/21 13:29:05;;;;;;;2.20;2.05;;;7.70;77.00;;;;;;5093367;28;20196;-89
2021/12/21 13:31:39;;;;;;;1.30;1.20;;;7.80;77.30;;;;;;5093556;28;20204;-89
2021/12/21 13:34:08;;;;;;;1.58;1.38;;;7.90;78.90;;;;;;5093572;28;20261;-89
2021/12/21 13:36:38;;;;;;;1.65;1.55;;;8.00;76.80;;;;;;5093353;28;20252;-88
2021/12/21 13:39:20;;;;;;;1.90;1.80;;;7.70;77.10;;;;;;5092972;28;20212;-88
2021/12/21 13:41:50;;;;;;;2.42;2.08;;;7.40;77.90;;;;;;5093439;28;20212;-88
2021/12/21 13:44:24;;;;;;;2.40;1.70;;;7.30;79.80;;;;;;5093341;28;20270;-89
2021/12/21 13:46:55;;;;;;;2.85;1.60;;;7.10;79.60;;;;;;5093322;28;20201;-89
2021/12/21 13:49:55;;;;;;;1.70;1.60;;;7.00;81.50;;;;;;5093334;28;20200;-88
2021/12/21 13:52:25;;;;;;;3.40;1.30;;;6.90;81.00;;;;;;5093547;28;20200;-88